sensor_id;sensor_type;location;lat;lon;timestamp;pressure;altitude;pressure_sealevel;temperature;humidity
49030;BME280;43337;52.070;4.508;2022-07-30T00:02:03;102007.22;;;18.31;68.27
49030;BME280;43337;52.070;4.508;2022-07-30T00:04:29;101992.06;;;18.16;68.15
49030;BME280;43337;52.070;4.508;2022-07-30T00:06:56;101984.06;;;18.16;68.31
49030;BME280;43337;52.070;4.508;2022-07-30T00:09:22;101973.75;;;18.10;68.20
49030;BME280;43337;52.070;4.508;2022-07-30T00:11:47;101962.91;;;17.97;68.29
49030;BME280;43337;52.070;4.508;2022-07-30T00:14:12;101997.50;;;18.14;68.35
49030;BME280;43337;52.070;4.508;2022-07-30T00:16:38;101995.00;;;18.11;68.48
49030;BME280;43337;52.070;4.508;2022-07-30T00:19:03;101976.34;;;17.95;68.44
49030;BME280;43337;52.070;4.508;2022-07-30T00:21:29;101929.53;;;17.74;68.55
49030;BME280;43337;52.070;4.508;2022-07-30T00:23:54;101967.72;;;17.90;68.92
49030;BME280;43337;52.070;4.508;2022-07-30T00:26:20;101915.06;;;17.62;68.89
49030;BME280;43337;52.070;4.508;2022-07-30T00:28:45;101934.94;;;17.72;68.97
49030;BME280;43337;52.070;4.508;2022-07-30T00:31:11;101962.75;;;17.84;69.01
49030;BME280;43337;52.070;4.508;2022-07-30T00:33:36;101918.94;;;17.56;68.96
49030;BME280;43337;52.070;4.508;2022-07-30T00:36:04;101953.59;;;17.72;69.29
49030;BME280;43337;52.070;4.508;2022-07-30T00:38:30;101933.19;;;17.55;69.03
49030;BME280;43337;52.070;4.508;2022-07-30T00:40:55;101941.88;;;17.59;69.16
49030;BME280;43337;52.070;4.508;2022-07-30T00:43:22;101973.88;;;17.75;69.29
49030;BME280;43337;52.070;4.508;2022-07-30T00:45:47;101941.28;;;17.54;69.26
49030;BME280;43337;52.070;4.508;2022-07-30T00:48:13;101979.22;;;17.75;69.20
49030;BME280;43337;52.070;4.508;2022-07-30T00:50:39;101946.66;;;17.52;69.24
49030;BME280;43337;52.070;4.508;2022-07-30T00:53:05;101967.50;;;17.62;69.51
49030;BME280;43337;52.070;4.508;2022-07-30T00:55:34;101948.41;;;17.53;69.59
49030;BME280;43337;52.070;4.508;2022-07-30T00:58:00;101962.47;;;17.55;69.52
49030;BME280;43337;52.070;4.508;2022-07-30T01:00:26;101980.66;;;17.65;69.67
49030;BME280;43337;52.070;4.508;2022-07-30T01:02:52;101978.03;;;17.63;69.42
49030;BME280;43337;52.070;4.508;2022-07-30T01:05:18;101934.25;;;17.36;69.59
49030;BME280;43337;52.070;4.508;2022-07-30T01:07:43;101937.72;;;17.38;69.61
49030;BME280;43337;52.070;4.508;2022-07-30T01:10:13;101969.63;;;17.55;69.88
49030;BME280;43337;52.070;4.508;2022-07-30T01:12:41;101937.72;;;17.38;69.91
49030;BME280;43337;52.070;4.508;2022-07-30T01:15:09;101956.25;;;17.39;69.79
49030;BME280;43337;52.070;4.508;2022-07-30T01:17:35;101947.56;;;17.36;70.02
49030;BME280;43337;52.070;4.508;2022-07-30T01:20:06;101934.06;;;17.23;69.98
49030;BME280;43337;52.070;4.508;2022-07-30T01:26:01;101960.97;;;17.34;69.71
49030;BME280;43337;52.070;4.508;2022-07-30T01:28:36;101935.94;;;17.21;69.92
49030;BME280;43337;52.070;4.508;2022-07-30T01:31:04;101949.94;;;17.24;70.05
49030;BME280;43337;52.070;4.508;2022-07-30T01:33:34;101949.00;;;17.25;70.15
49030;BME280;43337;52.070;4.508;2022-07-30T01:36:01;101945.16;;;17.14;70.42
49030;BME280;43337;52.070;4.508;2022-07-30T01:38:27;101969.19;;;17.29;70.60
49030;BME280;43337;52.070;4.508;2022-07-30T01:40:55;101966.69;;;17.26;70.31
49030;BME280;43337;52.070;4.508;2022-07-30T01:43:23;101953.94;;;17.16;70.28
49030;BME280;43337;52.070;4.508;2022-07-30T01:45:49;101934.94;;;17.06;70.69
49030;BME280;43337;52.070;4.508;2022-07-30T01:48:17;101951.44;;;17.13;70.81
49030;BME280;43337;52.070;4.508;2022-07-30T01:50:45;101948.94;;;17.09;70.82
49030;BME280;43337;52.070;4.508;2022-07-30T01:53:18;101925.09;;;16.91;70.68
49030;BME280;43337;52.070;4.508;2022-07-30T01:55:45;101942.41;;;16.99;70.84
49030;BME280;43337;52.070;4.508;2022-07-30T01:58:11;101970.94;;;17.13;70.95
49030;BME280;43337;52.070;4.508;2022-07-30T02:00:41;101964.84;;;17.11;70.83
49030;BME280;43337;52.070;4.508;2022-07-30T02:03:09;101960.53;;;17.08;70.98
49030;BME280;43337;52.070;4.508;2022-07-30T02:05:36;101956.56;;;17.00;71.01
49030;BME280;43337;52.070;4.508;2022-07-30T02:08:06;101954.19;;;16.94;71.07
49030;BME280;43337;52.070;4.508;2022-07-30T02:10:45;101978.78;;;16.99;71.08
49030;BME280;43337;52.070;4.508;2022-07-30T02:13:17;101972.06;;;16.92;70.95
49030;BME280;43337;52.070;4.508;2022-07-30T02:15:49;101948.78;;;16.78;71.08
49030;BME280;43337;52.070;4.508;2022-07-30T02:18:20;101976.50;;;16.91;71.11
49030;BME280;43337;52.070;4.508;2022-07-30T02:20:54;101972.59;;;16.81;70.89
49030;BME280;43337;52.070;4.508;2022-07-30T02:23:20;101987.44;;;16.85;71.23
49030;BME280;43337;52.070;4.508;2022-07-30T02:25:49;101959.94;;;16.67;71.17
49030;BME280;43337;52.070;4.508;2022-07-30T02:28:17;101930.84;;;16.47;71.37
49030;BME280;43337;52.070;4.508;2022-07-30T02:30:53;101975.75;;;16.70;71.13
49030;BME280;43337;52.070;4.508;2022-07-30T02:33:25;101954.28;;;16.56;71.50
49030;BME280;43337;52.070;4.508;2022-07-30T02:35:53;101949.28;;;16.50;71.27
49030;BME280;43337;52.070;4.508;2022-07-30T02:38:20;101957.75;;;16.58;71.42
49030;BME280;43337;52.070;4.508;2022-07-30T02:40:47;101970.72;;;16.64;71.45
49030;BME280;43337;52.070;4.508;2022-07-30T02:43:14;101977.78;;;16.65;71.58
49030;BME280;43337;52.070;4.508;2022-07-30T02:45:41;101949.28;;;16.50;71.59
49030;BME280;43337;52.070;4.508;2022-07-30T02:48:08;101938.00;;;16.45;71.43
49030;BME280;43337;52.070;4.508;2022-07-30T02:50:35;101932.94;;;16.40;71.74
49030;BME280;43337;52.070;4.508;2022-07-30T02:53:04;101964.78;;;16.59;71.51
49030;BME280;43337;52.070;4.508;2022-07-30T02:55:33;101941.75;;;16.41;71.53
49030;BME280;43337;52.070;4.508;2022-07-30T02:58:02;101934.81;;;16.38;71.62
49030;BME280;43337;52.070;4.508;2022-07-30T03:00:28;101945.50;;;16.36;71.82
49030;BME280;43337;52.070;4.508;2022-07-30T03:02:55;101965.41;;;16.47;71.79
49030;BME280;43337;52.070;4.508;2022-07-30T03:05:22;101951.06;;;16.32;72.05
49030;BME280;43337;52.070;4.508;2022-07-30T03:07:47;101929.44;;;16.21;71.97
49030;BME280;43337;52.070;4.508;2022-07-30T03:10:14;101939.72;;;16.28;71.86
49030;BME280;43337;52.070;4.508;2022-07-30T03:12:43;101934.75;;;16.21;71.70
49030;BME280;43337;52.070;4.508;2022-07-30T03:15:09;101926.22;;;16.14;71.83
49030;BME280;43337;52.070;4.508;2022-07-30T03:17:43;101957.22;;;16.32;71.80
49030;BME280;43337;52.070;4.508;2022-07-30T03:20:12;101927.97;;;16.15;71.83
49030;BME280;43337;52.070;4.508;2022-07-30T03:22:42;101936.16;;;16.10;72.07
49030;BME280;43337;52.070;4.508;2022-07-30T03:25:09;101980.16;;;16.35;71.87
49030;BME280;43337;52.070;4.508;2022-07-30T03:27:36;101962.91;;;16.25;72.00
49030;BME280;43337;52.070;4.508;2022-07-30T03:30:03;101959.47;;;16.23;72.09
49030;BME280;43337;52.070;4.508;2022-07-30T03:32:30;101963.13;;;16.20;71.98
49030;BME280;43337;52.070;4.508;2022-07-30T03:34:56;101940.75;;;16.07;72.29
49030;BME280;43337;52.070;4.508;2022-07-30T03:37:24;101982.38;;;16.25;72.09
49030;BME280;43337;52.070;4.508;2022-07-30T03:39:50;101950.34;;;16.09;72.19
49030;BME280;43337;52.070;4.508;2022-07-30T03:42:16;101971.03;;;16.22;72.03
49030;BME280;43337;52.070;4.508;2022-07-30T03:44:41;101950.66;;;16.03;72.30
49030;BME280;43337;52.070;4.508;2022-07-30T03:47:11;101967.69;;;16.18;72.13
49030;BME280;43337;52.070;4.508;2022-07-30T03:49:37;101935.38;;;15.90;72.63
49030;BME280;43337;52.070;4.508;2022-07-30T03:52:03;101982.00;;;16.14;72.42
49030;BME280;43337;52.070;4.508;2022-07-30T03:54:31;101967.47;;;16.04;72.47
49030;BME280;43337;52.070;4.508;2022-07-30T03:56:59;101939.69;;;15.92;72.53
49030;BME280;43337;52.070;4.508;2022-07-30T03:59:25;101951.88;;;15.96;72.40
49030;BME280;43337;52.070;4.508;2022-07-30T04:01:51;101936.31;;;15.89;72.71
49030;BME280;43337;52.070;4.508;2022-07-30T04:04:16;101949.59;;;15.89;72.81
49030;BME280;43337;52.070;4.508;2022-07-30T04:06:42;101941.75;;;15.85;72.71
49030;BME280;43337;52.070;4.508;2022-07-30T04:09:09;101976.38;;;16.03;72.73
49030;BME280;43337;52.070;4.508;2022-07-30T04:11:35;101971.34;;;15.97;72.84
49030;BME280;43337;52.070;4.508;2022-07-30T04:14:00;101991.16;;;16.08;72.93
49030;BME280;43337;52.070;4.508;2022-07-30T04:16:40;101996.47;;;16.08;72.61
49030;BME280;43337;52.070;4.508;2022-07-30T04:19:18;101970.63;;;15.93;72.68
49030;BME280;43337;52.070;4.508;2022-07-30T04:21:46;101979.22;;;15.98;72.87
49030;BME280;43337;52.070;4.508;2022-07-30T04:24:14;102001.88;;;16.07;72.89
49030;BME280;43337;52.070;4.508;2022-07-30T04:26:41;101992.31;;;16.03;72.55
49030;BME280;43337;52.070;4.508;2022-07-30T04:29:08;102005.38;;;16.07;72.97
49030;BME280;43337;52.070;4.508;2022-07-30T04:31:35;101976.78;;;15.94;73.25
49030;BME280;43337;52.070;4.508;2022-07-30T04:34:02;102000.84;;;16.09;73.00
49030;BME280;43337;52.070;4.508;2022-07-30T04:36:28;102006.16;;;16.09;73.43
49030;BME280;43337;52.070;4.508;2022-07-30T04:38:55;101998.97;;;16.11;73.12
49030;BME280;43337;52.070;4.508;2022-07-30T04:41:20;101982.97;;;15.94;73.17
49030;BME280;43337;52.070;4.508;2022-07-30T04:43:46;101979.22;;;15.98;73.22
49030;BME280;43337;52.070;4.508;2022-07-30T04:46:12;101994.75;;;16.07;73.11
49030;BME280;43337;52.070;4.508;2022-07-30T04:48:38;101996.31;;;16.11;73.17
49030;BME280;43337;52.070;4.508;2022-07-30T04:51:08;102008.41;;;16.19;73.51
49030;BME280;43337;52.070;4.508;2022-07-30T04:53:36;102000.78;;;16.11;73.31
49030;BME280;43337;52.070;4.508;2022-07-30T04:56:03;102001.19;;;16.21;73.19
49030;BME280;43337;52.070;4.508;2022-07-30T04:58:29;101998.69;;;16.18;73.21
49030;BME280;43337;52.070;4.508;2022-07-30T05:00:56;101979.72;;;16.06;73.51
49030;BME280;43337;52.070;4.508;2022-07-30T05:03:22;102002.13;;;16.20;73.31
49030;BME280;43337;52.070;4.508;2022-07-30T05:05:49;101990.78;;;16.16;73.32
49030;BME280;43337;52.070;4.508;2022-07-30T05:08:16;101949.22;;;15.96;73.35
49030;BME280;43337;52.070;4.508;2022-07-30T05:10:42;102010.59;;;16.28;73.20
49030;BME280;43337;52.070;4.508;2022-07-30T05:13:11;102009.25;;;16.19;73.32
49030;BME280;43337;52.070;4.508;2022-07-30T05:15:37;102004.50;;;16.26;73.26
49030;BME280;43337;52.070;4.508;2022-07-30T05:18:03;101972.69;;;16.05;73.48
49030;BME280;43337;52.070;4.508;2022-07-30T05:20:28;101969.41;;;16.00;73.51
49030;BME280;43337;52.070;4.508;2022-07-30T05:22:54;101988.03;;;16.18;73.46
49030;BME280;43337;52.070;4.508;2022-07-30T05:25:19;102006.94;;;16.30;73.31
49030;BME280;43337;52.070;4.508;2022-07-30T05:27:44;102001.78;;;16.27;73.68
49030;BME280;43337;52.070;4.508;2022-07-30T05:30:10;102017.13;;;16.40;73.32
49030;BME280;43337;52.070;4.508;2022-07-30T05:32:35;102035.09;;;16.53;73.30
49030;BME280;43337;52.070;4.508;2022-07-30T05:35:01;102041.97;;;16.57;73.48
49030;BME280;43337;52.070;4.508;2022-07-30T05:37:26;101999.53;;;16.37;73.50
49030;BME280;43337;52.070;4.508;2022-07-30T05:39:52;101998.59;;;16.38;73.58
49030;BME280;43337;52.070;4.508;2022-07-30T05:42:18;102003.38;;;16.49;73.04
49030;BME280;43337;52.070;4.508;2022-07-30T05:44:43;102026.16;;;16.73;73.09
49030;BME280;43337;52.070;4.508;2022-07-30T05:47:08;102037.19;;;16.83;73.12
49030;BME280;43337;52.070;4.508;2022-07-30T05:49:34;102035.47;;;16.82;72.80
49030;BME280;43337;52.070;4.508;2022-07-30T05:51:59;102022.13;;;16.83;72.92
49030;BME280;43337;52.070;4.508;2022-07-30T05:54:24;102020.66;;;16.95;72.78
49030;BME280;43337;52.070;4.508;2022-07-30T05:56:50;102009.34;;;16.90;72.63
49030;BME280;43337;52.070;4.508;2022-07-30T05:59:15;102013.03;;;17.05;72.37
49030;BME280;43337;52.070;4.508;2022-07-30T06:01:40;102010.78;;;17.15;72.29
49030;BME280;43337;52.070;4.508;2022-07-30T06:04:06;102024.06;;;17.32;72.10
49030;BME280;43337;52.070;4.508;2022-07-30T06:06:31;102020.25;;;17.38;72.17
49030;BME280;43337;52.070;4.508;2022-07-30T06:08:57;102031.81;;;17.54;71.86
49030;BME280;43337;52.070;4.508;2022-07-30T06:11:22;102031.16;;;17.66;71.69
49030;BME280;43337;52.070;4.508;2022-07-30T06:13:48;102037.66;;;17.78;71.59
49030;BME280;43337;52.070;4.508;2022-07-30T06:16:13;102042.16;;;17.93;71.22
49030;BME280;43337;52.070;4.508;2022-07-30T06:18:39;102031.41;;;17.95;71.09
49030;BME280;43337;52.070;4.508;2022-07-30T06:21:04;102043.03;;;18.10;70.82
49030;BME280;43337;52.070;4.508;2022-07-30T06:23:29;102054.84;;;18.21;70.60
49030;BME280;43337;52.070;4.508;2022-07-30T06:25:55;102037.56;;;18.28;70.51
49030;BME280;43337;52.070;4.508;2022-07-30T06:28:20;102022.50;;;18.27;70.11
49030;BME280;43337;52.070;4.508;2022-07-30T06:30:46;102015.31;;;18.29;69.55
49030;BME280;43337;52.070;4.508;2022-07-30T06:33:13;102045.53;;;18.60;69.44
49030;BME280;43337;52.070;4.508;2022-07-30T06:35:38;102023.63;;;18.55;69.11
49030;BME280;43337;52.070;4.508;2022-07-30T06:38:04;102021.31;;;18.65;69.06
49030;BME280;43337;52.070;4.508;2022-07-30T06:40:29;102005.03;;;18.69;68.67
49030;BME280;43337;52.070;4.508;2022-07-30T06:42:55;101990.81;;;18.69;68.47
49030;BME280;43337;52.070;4.508;2022-07-30T06:45:20;102048.75;;;19.13;68.13
49030;BME280;43337;52.070;4.508;2022-07-30T06:47:45;102037.72;;;19.19;67.50
49030;BME280;43337;52.070;4.508;2022-07-30T06:50:11;102009.09;;;19.07;67.05
49030;BME280;43337;52.070;4.508;2022-07-30T06:52:37;102047.09;;;19.40;66.83
49030;BME280;43337;52.070;4.508;2022-07-30T06:55:02;102004.38;;;19.26;66.32
49030;BME280;43337;52.070;4.508;2022-07-30T06:57:28;102016.69;;;19.43;66.09
49030;BME280;43337;52.070;4.508;2022-07-30T06:59:54;102045.91;;;19.60;65.80
49030;BME280;43337;52.070;4.508;2022-07-30T07:02:19;102034.34;;;19.60;65.57
49030;BME280;43337;52.070;4.508;2022-07-30T07:04:44;102041.56;;;19.73;65.64
49030;BME280;43337;52.070;4.508;2022-07-30T07:07:10;102055.59;;;19.91;65.48
49030;BME280;43337;52.070;4.508;2022-07-30T07:09:35;102031.06;;;19.85;64.98
49030;BME280;43337;52.070;4.508;2022-07-30T07:12:00;102029.63;;;19.93;64.88
49030;BME280;43337;52.070;4.508;2022-07-30T07:14:26;102047.47;;;20.07;64.43
49030;BME280;43337;52.070;4.508;2022-07-30T07:16:51;102041.94;;;20.10;64.20
49030;BME280;43337;52.070;4.508;2022-07-30T07:19:17;102051.94;;;20.21;64.26
49030;BME280;43337;52.070;4.508;2022-07-30T07:21:42;102059.84;;;20.37;63.56
49030;BME280;43337;52.070;4.508;2022-07-30T07:24:07;102063.63;;;20.47;63.37
49030;BME280;43337;52.070;4.508;2022-07-30T07:26:33;102031.28;;;20.37;63.46
49030;BME280;43337;52.070;4.508;2022-07-30T07:28:58;102057.53;;;20.59;62.80
49030;BME280;43337;52.070;4.508;2022-07-30T07:31:24;102056.72;;;20.71;62.25
49030;BME280;43337;52.070;4.508;2022-07-30T07:33:50;102059.53;;;20.83;61.81
49030;BME280;43337;52.070;4.508;2022-07-30T07:36:21;102005.28;;;20.54;61.65
49030;BME280;43337;52.070;4.508;2022-07-30T07:38:47;102045.50;;;20.79;60.88
49030;BME280;43337;52.070;4.508;2022-07-30T07:41:12;102036.72;;;20.77;61.02
49030;BME280;43337;52.070;4.508;2022-07-30T07:43:38;102050.25;;;20.88;61.11
49030;BME280;43337;52.070;4.508;2022-07-30T07:46:04;102038.38;;;20.92;60.97
49030;BME280;43337;52.070;4.508;2022-07-30T07:48:30;102065.31;;;21.16;60.56
49030;BME280;43337;52.070;4.508;2022-07-30T07:50:55;102051.84;;;21.18;60.47
49030;BME280;43337;52.070;4.508;2022-07-30T07:53:21;102058.28;;;21.28;59.51
49030;BME280;43337;52.070;4.508;2022-07-30T07:55:46;102058.63;;;21.36;59.44
49030;BME280;43337;52.070;4.508;2022-07-30T07:58:11;102065.94;;;21.47;59.29
49030;BME280;43337;52.070;4.508;2022-07-30T08:00:38;102060.59;;;21.47;59.13
49030;BME280;43337;52.070;4.508;2022-07-30T08:03:04;102061.56;;;21.59;58.73
49030;BME280;43337;52.070;4.508;2022-07-30T08:05:29;102026.59;;;21.48;58.00
49030;BME280;43337;52.070;4.508;2022-07-30T08:07:55;102044.75;;;21.57;57.46
49030;BME280;43337;52.070;4.508;2022-07-30T08:10:20;102041.59;;;21.63;57.63
49030;BME280;43337;52.070;4.508;2022-07-30T08:12:45;102064.66;;;21.78;57.44
49030;BME280;43337;52.070;4.508;2022-07-30T08:15:11;102053.72;;;21.81;56.88
49030;BME280;43337;52.070;4.508;2022-07-30T08:17:43;102044.38;;;21.87;57.19
49030;BME280;43337;52.070;4.508;2022-07-30T08:20:10;102046.09;;;22.01;56.73
49030;BME280;43337;52.070;4.508;2022-07-30T08:22:35;102039.53;;;22.05;57.03
49030;BME280;43337;52.070;4.508;2022-07-30T08:25:02;102037.09;;;22.14;56.18
49030;BME280;43337;52.070;4.508;2022-07-30T08:27:27;102042.75;;;22.23;56.13
49030;BME280;43337;52.070;4.508;2022-07-30T08:29:53;102030.06;;;22.25;55.47
49030;BME280;43337;52.070;4.508;2022-07-30T08:32:19;102053.22;;;22.38;55.20
49030;BME280;43337;52.070;4.508;2022-07-30T08:34:47;101997.81;;;22.13;54.70
49030;BME280;43337;52.070;4.508;2022-07-30T08:37:13;102036.38;;;22.36;53.92
49030;BME280;43337;52.070;4.508;2022-07-30T08:39:39;102036.28;;;22.38;53.43
49030;BME280;43337;52.070;4.508;2022-07-30T08:42:05;102022.22;;;22.34;53.24
49030;BME280;43337;52.070;4.508;2022-07-30T08:44:32;102051.03;;;22.56;53.03
49030;BME280;43337;52.070;4.508;2022-07-30T08:46:58;102057.53;;;22.65;52.97
49030;BME280;43337;52.070;4.508;2022-07-30T08:49:26;102036.50;;;22.59;52.72
49030;BME280;43337;52.070;4.508;2022-07-30T08:51:52;102050.75;;;22.72;52.80
49030;BME280;43337;52.070;4.508;2022-07-30T08:54:18;102066.25;;;22.93;52.17
49030;BME280;43337;52.070;4.508;2022-07-30T08:56:44;102065.81;;;22.99;52.11
49030;BME280;43337;52.070;4.508;2022-07-30T08:59:10;102069.72;;;23.06;52.23
49030;BME280;43337;52.070;4.508;2022-07-30T09:01:35;102060.69;;;23.07;52.39
49030;BME280;43337;52.070;4.508;2022-07-30T09:04:01;102033.84;;;23.07;52.27
49030;BME280;43337;52.070;4.508;2022-07-30T09:06:26;102068.47;;;23.34;51.70
49030;BME280;43337;52.070;4.508;2022-07-30T09:08:52;102054.81;;;23.37;51.43
49030;BME280;43337;52.070;4.508;2022-07-30T09:11:18;102069.97;;;23.49;51.31
49030;BME280;43337;52.070;4.508;2022-07-30T09:13:44;102044.41;;;23.44;51.46
49030;BME280;43337;52.070;4.508;2022-07-30T09:16:24;102062.78;;;23.61;51.38
49030;BME280;43337;52.070;4.508;2022-07-30T09:18:51;102061.38;;;23.68;50.87
49030;BME280;43337;52.070;4.508;2022-07-30T09:21:23;102086.94;;;23.96;50.61
49030;BME280;43337;52.070;4.508;2022-07-30T09:24:03;102087.94;;;24.06;50.28
49030;BME280;43337;52.070;4.508;2022-07-30T09:26:30;102079.47;;;24.11;50.02
49030;BME280;43337;52.070;4.508;2022-07-30T09:29:17;102051.72;;;24.10;49.76
49030;BME280;43337;52.070;4.508;2022-07-30T09:31:57;102076.03;;;24.31;50.01
49030;BME280;43337;52.070;4.508;2022-07-30T09:34:35;102060.25;;;24.27;49.75
49030;BME280;43337;52.070;4.508;2022-07-30T09:37:03;102032.50;;;24.15;49.69
49030;BME280;43337;52.070;4.508;2022-07-30T09:41:58;102050.59;;;24.47;49.23
49030;BME280;43337;52.070;4.508;2022-07-30T09:44:25;102059.09;;;24.63;48.92
49030;BME280;43337;52.070;4.508;2022-07-30T09:46:52;102049.06;;;24.65;49.15
49030;BME280;43337;52.070;4.508;2022-07-30T09:49:24;102026.31;;;24.58;48.92
49030;BME280;43337;52.070;4.508;2022-07-30T09:51:50;102029.69;;;24.71;48.31
49030;BME280;43337;52.070;4.508;2022-07-30T09:54:16;102026.34;;;24.79;48.36
49030;BME280;43337;52.070;4.508;2022-07-30T09:56:41;102056.63;;;25.03;47.92
49030;BME280;43337;52.070;4.508;2022-07-30T09:59:30;102058.09;;;25.07;47.25
49030;BME280;43337;52.070;4.508;2022-07-30T10:01:57;102060.16;;;25.15;47.26
49030;BME280;43337;52.070;4.508;2022-07-30T10:04:27;102042.53;;;25.11;46.92
49030;BME280;43337;52.070;4.508;2022-07-30T10:06:53;102040.03;;;25.19;46.92
49030;BME280;43337;52.070;4.508;2022-07-30T10:09:30;102021.31;;;25.18;46.82
49030;BME280;43337;52.070;4.508;2022-07-30T10:11:58;102052.00;;;25.47;46.40
49030;BME280;43337;52.070;4.508;2022-07-30T10:14:26;102054.50;;;25.60;46.13
49030;BME280;43337;52.070;4.508;2022-07-30T10:16:53;102065.19;;;25.71;45.92
49030;BME280;43337;52.070;4.508;2022-07-30T10:19:19;102058.19;;;25.80;45.34
49030;BME280;43337;52.070;4.508;2022-07-30T10:21:47;102048.25;;;25.80;45.48
49030;BME280;43337;52.070;4.508;2022-07-30T10:24:15;102065.09;;;26.03;45.11
49030;BME280;43337;52.070;4.508;2022-07-30T10:26:42;102063.25;;;26.04;44.82
49030;BME280;43337;52.070;4.508;2022-07-30T10:29:08;102051.28;;;25.97;44.75
49030;BME280;43337;52.070;4.508;2022-07-30T10:31:33;102046.47;;;26.00;44.57
49030;BME280;43337;52.070;4.508;2022-07-30T10:33:59;102040.81;;;26.03;44.38
49030;BME280;43337;52.070;4.508;2022-07-30T10:36:26;102051.09;;;26.19;44.29
49030;BME280;43337;52.070;4.508;2022-07-30T10:38:53;102048.25;;;26.21;43.86
49030;BME280;43337;52.070;4.508;2022-07-30T10:49:25;102034.72;;;26.11;44.59
49030;BME280;43337;52.070;4.508;2022-07-30T10:51:52;102047.69;;;26.27;45.14
49030;BME280;43337;52.070;4.508;2022-07-30T10:57:07;102054.88;;;26.47;43.79
49030;BME280;43337;52.070;4.508;2022-07-30T11:02:28;102039.91;;;26.43;43.57
49030;BME280;43337;52.070;4.508;2022-07-30T11:07:45;102041.06;;;26.41;43.25
49030;BME280;43337;52.070;4.508;2022-07-30T11:10:38;102053.03;;;26.48;43.01
49030;BME280;43337;52.070;4.508;2022-07-30T11:13:06;102059.81;;;26.42;42.84
49030;BME280;43337;52.070;4.508;2022-07-30T11:15:54;102056.38;;;26.30;42.59
49030;BME280;43337;52.070;4.508;2022-07-30T11:18:21;102057.06;;;26.23;42.75
49030;BME280;43337;52.070;4.508;2022-07-30T11:21:17;102045.09;;;26.06;43.03
49030;BME280;43337;52.070;4.508;2022-07-30T11:23:44;102047.78;;;26.06;43.23
49030;BME280;43337;52.070;4.508;2022-07-30T11:29:07;102063.09;;;26.05;43.20
49030;BME280;43337;52.070;4.508;2022-07-30T11:31:33;102064.25;;;26.03;42.73
49030;BME280;43337;52.070;4.508;2022-07-30T11:42:31;102056.28;;;26.01;43.29
49030;BME280;43337;52.070;4.508;2022-07-30T11:47:56;102057.84;;;26.04;43.76
49030;BME280;43337;52.070;4.508;2022-07-30T11:50:24;102056.00;;;26.04;43.62
49030;BME280;43337;52.070;4.508;2022-07-30T11:52:50;102050.59;;;26.04;43.33
49030;BME280;43337;52.070;4.508;2022-07-30T11:55:44;102043.63;;;26.02;43.50
49030;BME280;43337;52.070;4.508;2022-07-30T11:58:30;102055.59;;;26.09;43.34
49030;BME280;43337;52.070;4.508;2022-07-30T12:00:58;102032.97;;;26.00;43.62
49030;BME280;43337;52.070;4.508;2022-07-30T12:03:27;102055.91;;;26.16;43.24
49030;BME280;43337;52.070;4.508;2022-07-30T12:05:53;102059.19;;;26.19;43.50
49030;BME280;43337;52.070;4.508;2022-07-30T12:08:20;102053.25;;;26.25;43.62
49030;BME280;43337;52.070;4.508;2022-07-30T12:10:57;102057.81;;;26.35;43.41
49030;BME280;43337;52.070;4.508;2022-07-30T12:13:23;102059.66;;;26.44;43.69
49030;BME280;43337;52.070;4.508;2022-07-30T12:15:48;102055.81;;;26.37;42.74
49030;BME280;43337;52.070;4.508;2022-07-30T12:18:23;102054.38;;;26.33;42.46
49030;BME280;43337;52.070;4.508;2022-07-30T12:20:56;102049.09;;;26.21;42.46
49030;BME280;43337;52.070;4.508;2022-07-30T12:23:22;102068.56;;;26.25;42.84
49030;BME280;43337;52.070;4.508;2022-07-30T12:25:48;102056.22;;;26.22;43.01
49030;BME280;43337;52.070;4.508;2022-07-30T12:28:25;102061.47;;;26.24;42.83
49030;BME280;43337;52.070;4.508;2022-07-30T12:30:51;102043.25;;;26.16;43.14
49030;BME280;43337;52.070;4.508;2022-07-30T12:33:18;102050.25;;;26.19;43.58
49030;BME280;43337;52.070;4.508;2022-07-30T12:35:49;102055.38;;;26.22;43.39
49030;BME280;43337;52.070;4.508;2022-07-30T12:38:15;102049.97;;;26.22;43.50
49030;BME280;43337;52.070;4.508;2022-07-30T12:41:01;102047.66;;;26.17;42.83
49030;BME280;43337;52.070;4.508;2022-07-30T12:43:44;102051.50;;;26.15;43.76
49030;BME280;43337;52.070;4.508;2022-07-30T12:46:11;102044.63;;;26.01;44.04
49030;BME280;43337;52.070;4.508;2022-07-30T12:48:38;102035.25;;;25.95;43.70
49030;BME280;43337;52.070;4.508;2022-07-30T12:51:12;102056.56;;;25.98;43.65
49030;BME280;43337;52.070;4.508;2022-07-30T12:53:37;102019.41;;;25.81;44.33
49030;BME280;43337;52.070;4.508;2022-07-30T12:56:17;102034.94;;;25.89;44.32
49030;BME280;43337;52.070;4.508;2022-07-30T12:58:43;102040.75;;;25.94;44.20
49030;BME280;43337;52.070;4.508;2022-07-30T13:01:09;102035.66;;;25.91;44.71
49030;BME280;43337;52.070;4.508;2022-07-30T13:03:35;102041.66;;;26.04;44.50
49030;BME280;43337;52.070;4.508;2022-07-30T13:06:17;102040.25;;;26.10;44.74
49030;BME280;43337;52.070;4.508;2022-07-30T13:11:13;102038.00;;;26.15;44.30
49030;BME280;43337;52.070;4.508;2022-07-30T13:13:38;102020.91;;;26.04;44.74
49030;BME280;43337;52.070;4.508;2022-07-30T13:16:05;102033.31;;;26.17;45.47
49030;BME280;43337;52.070;4.508;2022-07-30T13:18:33;102031.06;;;26.22;45.28
49030;BME280;43337;52.070;4.508;2022-07-30T13:21:00;102033.78;;;26.22;44.55
49030;BME280;43337;52.070;4.508;2022-07-30T13:23:26;102008.72;;;26.10;43.93
49030;BME280;43337;52.070;4.508;2022-07-30T13:25:52;102012.97;;;26.13;43.82
49030;BME280;43337;52.070;4.508;2022-07-30T13:28:17;101996.78;;;26.13;43.69
49030;BME280;43337;52.070;4.508;2022-07-30T13:30:43;101994.22;;;26.11;43.97
49030;BME280;43337;52.070;4.508;2022-07-30T13:33:08;102006.06;;;26.29;43.36